Time;durP1;ratioP1;P1;durP2;ratioP2;P2;SDS_P1;SDS_P2;PMS_P1;PMS_P2;Temp;Humidity;BMP_temperature;BMP_pressure;BME280_temperature;BME280_humidity;BME280_pressure;Samples;Min_cycle;Max_cycle;Signal;HPM_P1;HPM_P2
2023/04/07 00:01:15;;;;;;;2.50;2.30;;;10.20;34.90;;;;;;5091664;28;20426;-84
2023/04/07 00:03:42;;;;;;;2.47;2.00;;;10.20;1.00;;;;;;5079996;28;20438;-85
2023/04/07 00:06:08;;;;;;;2.45;2.25;;;10.10;1.00;;;;;;5076052;28;20413;-84
2023/04/07 00:08:33;;;;;;;2.58;2.38;;;10.10;1.00;;;;;;5071648;28;20956;-84
2023/04/07 00:10:59;;;;;;;2.90;2.60;;;10.20;1.00;;;;;;5070563;28;20384;-84
2023/04/07 00:13:25;;;;;;;2.70;2.50;;;10.20;1.00;;;;;;5074831;28;20382;-84
2023/04/07 00:15:50;;;;;;;2.60;2.40;;;10.10;1.00;;;;;;5094280;28;20412;-84
2023/04/07 00:18:16;;;;;;;2.50;2.00;;;10.20;1.00;;;;;;5088354;28;20398;-84
2023/04/07 00:20:41;;;;;;;2.40;2.20;;;10.20;1.00;;;;;;5094575;28;20431;-84
2023/04/07 00:23:07;;;;;;;3.60;2.30;;;10.20;1.00;;;;;;5083624;28;20383;-83
2023/04/07 00:25:32;;;;;;;2.35;2.15;;;10.20;1.00;;;;;;5069561;28;20403;-84
2023/04/07 00:27:58;;;;;;;2.60;2.40;;;10.20;1.00;;;;;;5069324;28;20380;-84
2023/04/07 00:30:24;;;;;;;2.93;2.33;;;10.20;1.00;;;;;;5069427;28;20909;-84
2023/04/07 00:32:50;;;;;;;2.30;2.10;;;10.20;1.00;;;;;;5070969;28;20878;-84
2023/04/07 00:35:16;;;;;;;2.58;2.38;;;10.20;1.00;;;;;;5069784;28;20387;-84
2023/04/07 00:37:42;;;;;;;4.05;2.50;;;10.30;1.00;;;;;;5070714;28;20384;-84
2023/04/07 00:40:08;;;;;;;2.63;2.08;;;10.30;1.00;;;;;;5069442;28;20441;-84
2023/04/07 00:42:33;;;;;;;4.13;2.50;;;10.30;1.00;;;;;;5070758;28;20394;-84
2023/04/07 00:44:59;;;;;;;2.90;2.60;;;10.30;1.00;;;;;;5069439;28;20403;-83
2023/04/07 00:47:25;;;;;;;3.10;2.60;;;10.20;1.00;;;;;;5069441;28;20388;-84
2023/04/07 00:49:50;;;;;;;2.50;2.30;;;10.20;1.00;;;;;;5070520;28;20399;-84
2023/04/07 00:52:17;;;;;;;2.30;2.10;;;10.20;1.00;;;;;;5069693;28;20384;-84
2023/04/07 00:54:45;;;;;;;3.70;2.40;;;10.20;1.00;;;;;;5069660;28;20506;-84
2023/04/07 00:57:11;;;;;;;3.75;2.20;;;10.10;1.00;;;;;;5070575;28;20813;-84
2023/04/07 00:59:37;;;;;;;2.30;2.10;;;10.10;1.00;;;;;;5070037;28;20548;-84
2023/04/07 01:02:05;;;;;;;2.63;2.20;;;10.10;1.00;;;;;;5088529;28;20380;-84
2023/04/07 01:04:37;;;;;;;2.70;2.50;;;10.20;1.00;;;;;;5091355;28;20410;-84
2023/04/07 01:07:14;;;;;;;3.90;2.40;;;10.30;35.80;;;;;;5092163;28;20391;-84
2023/04/07 01:09:46;;;;;;;2.78;2.30;;;10.20;36.60;;;;;;5091061;28;20394;-84
2023/04/07 01:12:23;;;;;;;2.38;2.17;;;10.20;37.20;;;;;;5090493;28;20894;-84
2023/04/07 01:14:57;;;;;;;2.50;2.30;;;10.20;1.00;;;;;;5071582;28;20726;-84
2023/04/07 01:17:25;;;;;;;2.72;2.53;;;10.20;1.00;;;;;;5071240;28;20746;-84
2023/04/07 01:19:54;;;;;;;2.72;2.40;;;10.20;1.00;;;;;;5071347;28;20379;-84
2023/04/07 01:22:28;;;;;;;3.10;2.50;;;10.30;1.00;;;;;;5070401;28;20795;-84
2023/04/07 01:25:25;;;;;;;2.45;2.25;;;10.20;1.00;;;;;;5070869;28;20469;-85
2023/04/07 01:28:00;;;;;;;2.50;2.20;;;10.20;1.00;;;;;;5069723;28;20808;-85
2023/04/07 01:30:32;;;;;;;2.80;2.60;;;10.20;1.00;;;;;;5069494;28;20822;-84
2023/04/07 01:32:59;;;;;;;2.95;2.50;;;10.20;1.00;;;;;;5070944;28;20391;-85
2023/04/07 01:35:28;;;;;;;2.70;2.50;;;10.10;1.00;;;;;;5069635;28;20387;-84
2023/04/07 01:37:54;;;;;;;2.50;2.30;;;10.30;37.50;;;;;;5069348;28;20387;-84
2023/04/07 01:40:21;;;;;;;2.72;2.53;;;10.20;38.50;;;;;;5092525;28;20371;-85
2023/04/07 01:42:48;;;;;;;3.33;2.55;;;10.20;37.60;;;;;;5073563;28;20920;-85
2023/04/07 01:45:15;;;;;;;2.83;2.35;;;10.20;37.20;;;;;;5072831;28;20415;-85
2023/04/07 01:47:42;;;;;;;2.65;2.40;;;10.20;38.20;;;;;;5072557;28;20448;-84
2023/04/07 01:50:10;;;;;;;2.90;2.70;;;10.30;36.90;;;;;;5072548;28;20459;-84
2023/04/07 01:52:36;;;;;;;3.15;2.55;;;10.30;37.20;;;;;;5072807;28;20407;-84
2023/04/07 01:55:04;;;;;;;2.55;2.35;;;10.30;37.60;;;;;;5072944;28;20380;-85
2023/04/07 01:57:29;;;;;;;3.58;2.83;;;10.20;37.90;;;;;;5072628;28;20913;-84
2023/04/07 01:59:55;;;;;;;3.80;2.80;;;10.30;39.30;;;;;;5072588;28;20383;-85
2023/04/07 02:02:21;;;;;;;6.00;3.30;;;10.20;38.50;;;;;;5072620;28;20395;-84
2023/04/07 02:05:04;;;;;;;3.15;2.85;;;10.20;38.60;;;;;;5072721;28;20404;-84
2023/04/07 02:07:44;;;;;;;3.10;2.65;;;10.20;40.40;;;;;;5073753;28;20466;-84
2023/04/07 02:10:14;;;;;;;2.60;2.40;;;10.20;38.60;;;;;;5072728;28;20383;-84
2023/04/07 02:12:41;;;;;;;2.78;2.58;;;10.20;40.50;;;;;;5072777;28;20376;-85
2023/04/07 02:15:10;;;;;;;2.80;2.60;;;10.10;42.90;;;;;;5072577;28;20398;-85
2023/04/07 02:17:38;;;;;;;2.70;2.50;;;10.10;99.90;;;;;;5072260;28;20426;-84
2023/04/07 02:20:06;;;;;;;2.83;2.50;;;10.10;1.00;;;;;;5072029;28;20396;-84
2023/04/07 02:22:32;;;;;;;2.90;2.67;;;9.90;26.90;;;;;;5072471;28;20383;-84
2023/04/07 02:24:58;;;;;;;2.97;2.67;;;9.80;99.90;;;;;;5072097;28;20419;-84
2023/04/07 02:27:23;;;;;;;4.27;2.70;;;9.70;1.00;;;;;;5073612;28;20406;-85
2023/04/07 02:29:49;;;;;;;3.10;2.90;;;9.50;99.90;;;;;;5073749;28;20380;-85
2023/04/07 02:32:16;;;;;;;3.40;3.10;;;9.40;1.00;;;;;;5073188;28;20380;-84
2023/04/07 02:34:42;;;;;;;3.00;2.70;;;9.20;99.90;;;;;;5073044;28;20475;-84
2023/04/07 02:37:07;;;;;;;2.80;2.60;;;9.20;99.90;;;;;;5073183;28;20798;-84
2023/04/07 02:39:33;;;;;;;3.50;2.60;;;9.00;99.90;;;;;;5072016;28;20418;-84
2023/04/07 02:41:58;;;;;;;4.47;3.20;;;8.90;1.00;;;;;;5072040;28;20468;-85
2023/04/07 02:44:24;;;;;;;3.60;2.70;;;8.90;1.00;;;;;;5095903;28;20391;-84
2023/04/07 02:46:49;;;;;;;2.83;2.63;;;8.80;89.30;;;;;;5075134;28;20396;-85
2023/04/07 02:49:15;;;;;;;3.70;3.40;;;8.70;99.90;;;;;;5071938;28;20388;-84
2023/04/07 02:51:40;;;;;;;3.10;2.90;;;8.70;99.90;;;;;;5071662;28;20379;-84
2023/04/07 02:54:06;;;;;;;3.28;2.60;;;8.50;99.90;;;;;;5073153;28;20406;-84
2023/04/07 02:56:32;;;;;;;4.15;2.72;;;8.50;99.90;;;;;;5071375;28;20380;-84
2023/04/07 02:58:57;;;;;;;4.45;2.97;;;8.50;1.00;;;;;;5071965;28;20384;-84
2023/04/07 03:01:23;;;;;;;3.07;2.87;;;8.40;1.00;;;;;;5071540;28;20724;-85
2023/04/07 03:03:48;;;;;;;4.57;3.17;;;8.40;1.00;;;;;;5071569;28;20391;-85
2023/04/07 03:06:14;;;;;;;3.27;2.93;;;8.40;1.00;;;;;;5071322;28;20380;-84
2023/04/07 03:08:41;;;;;;;3.40;3.10;;;8.30;1.00;;;;;;5072674;28;20387;-83
2023/04/07 03:11:06;;;;;;;3.30;3.00;;;8.30;1.00;;;;;;5072195;28;20442;-85
2023/04/07 03:13:32;;;;;;;3.40;2.90;;;8.30;1.00;;;;;;5072137;28;20774;-85
2023/04/07 03:15:57;;;;;;;3.10;2.90;;;8.30;1.00;;;;;;5071092;28;20414;-84
2023/04/07 03:18:23;;;;;;;3.30;2.72;;;8.30;1.00;;;;;;5081898;28;20388;-84
2023/04/07 03:20:48;;;;;;;2.53;2.33;;;8.30;1.00;;;;;;5076044;28;20462;-85
2023/04/07 03:23:14;;;;;;;2.50;2.30;;;8.30;1.00;;;;;;5071393;28;20833;-85
2023/04/07 03:25:40;;;;;;;4.10;2.70;;;8.30;1.00;;;;;;5070838;28;20400;-85
2023/04/07 03:28:06;;;;;;;2.83;2.40;;;8.30;1.00;;;;;;5071716;28;20862;-85
2023/04/07 03:30:32;;;;;;;3.00;2.50;;;8.40;1.00;;;;;;5071424;28;20471;-85
2023/04/07 03:32:57;;;;;;;2.80;2.60;;;8.30;1.00;;;;;;5071718;28;20924;-85
2023/04/07 03:35:23;;;;;;;2.60;2.40;;;8.30;1.00;;;;;;5071444;28;20399;-84
2023/04/07 03:37:49;;;;;;;2.67;2.40;;;8.10;1.00;;;;;;5071774;28;20387;-85
2023/04/07 03:40:14;;;;;;;5.10;2.80;;;8.10;1.00;;;;;;5071803;28;20395;-85
2023/04/07 03:42:40;;;;;;;3.05;2.65;;;8.20;1.00;;;;;;5072778;28;20388;-85
2023/04/07 03:45:06;;;;;;;2.60;2.40;;;8.10;1.00;;;;;;5071179;28;20471;-84
2023/04/07 03:47:31;;;;;;;2.80;2.60;;;8.20;1.00;;;;;;5072326;28;20380;-84
2023/04/07 03:49:57;;;;;;;2.87;2.67;;;8.20;1.00;;;;;;5071471;28;20897;-85
2023/04/07 03:52:22;;;;;;;2.60;2.40;;;8.10;1.00;;;;;;5071830;28;20391;-85
2023/04/07 03:54:48;;;;;;;3.17;2.80;;;8.10;1.00;;;;;;5071992;28;20509;-85
2023/04/07 03:57:13;;;;;;;4.30;2.50;;;8.10;1.00;;;;;;5070815;28;20964;-84
2023/04/07 03:59:39;;;;;;;2.70;2.30;;;8.10;1.00;;;;;;5071226;28;20384;-85
2023/04/07 04:02:05;;;;;;;2.65;2.45;;;8.20;1.00;;;;;;5071125;28;21073;-85
2023/04/07 04:04:30;;;;;;;2.70;2.50;;;8.10;1.00;;;;;;5071357;28;20399;-84
2023/04/07 04:06:56;;;;;;;3.00;2.70;;;8.10;1.00;;;;;;5073218;28;20384;-85
2023/04/07 04:09:21;;;;;;;2.97;2.70;;;8.10;1.00;;;;;;5070766;28;20889;-85
2023/04/07 04:11:47;;;;;;;4.97;3.00;;;8.10;1.00;;;;;;5076982;28;20388;-85
2023/04/07 04:14:12;;;;;;;3.00;2.70;;;8.10;1.00;;;;;;5079398;28;20396;-85
2023/04/07 04:16:38;;;;;;;2.93;2.47;;;8.10;1.00;;;;;;5074726;28;20429;-85
2023/04/07 04:19:03;;;;;;;2.60;2.40;;;8.10;1.00;;;;;;5072300;28;20383;-85
2023/04/07 04:21:30;;;;;;;2.97;2.67;;;8.00;1.00;;;;;;5075216;28;20387;-85
2023/04/07 04:23:55;;;;;;;3.00;2.70;;;7.90;1.00;;;;;;5073145;28;20404;-84
2023/04/07 04:26:24;;;;;;;4.55;3.30;;;8.00;1.00;;;;;;5072802;28;20394;-84
2023/04/07 04:28:50;;;;;;;3.05;2.72;;;7.90;1.00;;;;;;5071914;28;20413;-84
2023/04/07 04:31:16;;;;;;;3.90;2.72;;;8.10;1.00;;;;;;5073517;28;20375;-85
2023/04/07 04:33:41;;;;;;;2.90;2.55;;;7.90;1.00;;;;;;5073216;28;20437;-85
2023/04/07 04:36:07;;;;;;;3.83;2.73;;;8.00;1.00;;;;;;5072553;28;20436;-85
2023/04/07 04:38:32;;;;;;;3.70;3.00;;;7.90;1.00;;;;;;5071129;28;20387;-85
2023/04/07 04:40:58;;;;;;;3.57;2.90;;;7.90;1.00;;;;;;5071460;28;20386;-85
2023/04/07 04:43:23;;;;;;;3.90;2.90;;;7.90;1.00;;;;;;5072488;28;20411;-85
2023/04/07 04:45:49;;;;;;;3.88;3.30;;;7.80;1.00;;;;;;5070132;28;20474;-85
2023/04/07 04:48:16;;;;;;;3.10;2.90;;;7.80;1.00;;;;;;5071336;28;20471;-84
2023/04/07 04:50:42;;;;;;;3.40;3.10;;;7.90;1.00;;;;;;5072117;28;20372;-85
2023/04/07 04:53:09;;;;;;;3.00;2.70;;;7.80;1.00;;;;;;5071356;28;20388;-85
2023/04/07 04:55:34;;;;;;;3.33;3.08;;;7.80;1.00;;;;;;5072287;28;20928;-85
2023/04/07 04:58:00;;;;;;;3.55;3.25;;;7.80;1.00;;;;;;5091924;28;20379;-85
2023/04/07 05:00:26;;;;;;;3.43;3.00;;;7.80;1.00;;;;;;5072423;28;20430;-85
2023/04/07 05:02:51;;;;;;;3.50;3.20;;;7.70;1.00;;;;;;5072539;28;20469;-85
2023/04/07 05:05:17;;;;;;;3.60;3.30;;;7.60;1.00;;;;;;5070806;28;20914;-85
2023/04/07 05:07:42;;;;;;;3.70;3.40;;;7.70;24.80;;;;;;5073587;28;20382;-85
2023/04/07 05:10:08;;;;;;;3.50;3.20;;;7.70;1.00;;;;;;5094382;28;20422;-85
2023/04/07 05:12:34;;;;;;;3.20;3.00;;;7.70;1.00;;;;;;5071091;28;20387;-84
2023/04/07 05:15:00;;;;;;;3.40;3.10;;;7.70;1.00;;;;;;5073221;28;20410;-85
2023/04/07 05:17:25;;;;;;;3.38;3.10;;;7.70;1.00;;;;;;5075032;28;20376;-85
2023/04/07 05:19:51;;;;;;;3.67;3.20;;;7.70;1.00;;;;;;5073524;28;20394;-85
2023/04/07 05:22:16;;;;;;;4.38;3.45;;;7.80;1.00;;;;;;5074198;28;20379;-85
2023/04/07 05:24:42;;;;;;;3.50;3.20;;;7.80;9.70;;;;;;5074375;28;20477;-85
2023/04/07 05:27:07;;;;;;;3.80;3.00;;;7.80;1.00;;;;;;5073331;28;20415;-85
2023/04/07 05:29:33;;;;;;;3.17;2.90;;;7.80;1.00;;;;;;5073372;28;20520;-85
2023/04/07 05:32:00;;;;;;;3.50;3.20;;;7.70;4.50;;;;;;5073782;28;20383;-85
2023/04/07 05:34:26;;;;;;;3.70;3.40;;;7.70;5.10;;;;;;5073784;28;20392;-85
2023/04/07 05:36:51;;;;;;;3.17;2.90;;;7.70;1.00;;;;;;5074922;28;20384;-85
2023/04/07 05:39:17;;;;;;;4.22;2.72;;;7.70;2.10;;;;;;5073502;28;20379;-85
2023/04/07 05:41:43;;;;;;;3.93;3.30;;;7.80;1.00;;;;;;5075448;28;20383;-85
2023/04/07 05:44:08;;;;;;;3.70;3.40;;;7.80;1.00;;;;;;5073504;28;20399;-85
2023/04/07 05:46:34;;;;;;;2.90;2.70;;;7.90;1.00;;;;;;5074396;28;20380;-85
2023/04/07 05:48:59;;;;;;;3.23;2.93;;;8.00;1.00;;;;;;5074845;28;20375;-85
2023/04/07 05:51:25;;;;;;;3.53;2.40;;;8.00;1.00;;;;;;5073916;28;20437;-85
2023/04/07 05:53:51;;;;;;;3.40;3.10;;;8.00;1.00;;;;;;5073601;28;20467;-85
2023/04/07 05:56:16;;;;;;;3.10;2.90;;;7.90;1.00;;;;;;5075007;28;20424;-84
2023/04/07 05:58:42;;;;;;;2.80;2.60;;;7.90;1.00;;;;;;5074156;28;20431;-85
2023/04/07 06:01:07;;;;;;;3.10;2.90;;;7.90;1.00;;;;;;5074484;28;20446;-85
2023/04/07 06:03:33;;;;;;;3.47;3.17;;;8.00;1.00;;;;;;5073027;28;20920;-85
2023/04/07 06:05:58;;;;;;;4.70;2.90;;;8.10;1.00;;;;;;5074434;28;20433;-85
2023/04/07 06:08:24;;;;;;;2.83;2.60;;;8.10;1.00;;;;;;5073337;28;20404;-85
2023/04/07 06:10:49;;;;;;;3.40;3.10;;;8.10;1.00;;;;;;5072867;28;20406;-85
2023/04/07 06:13:15;;;;;;;4.00;3.03;;;8.10;1.00;;;;;;5074019;28;20376;-85
2023/04/07 06:15:41;;;;;;;5.43;3.45;;;7.90;1.00;;;;;;5076271;28;20376;-85
2023/04/07 06:18:06;;;;;;;3.60;3.30;;;8.00;1.00;;;;;;5076698;28;20881;-85
2023/04/07 06:20:32;;;;;;;3.50;3.10;;;8.10;1.00;;;;;;5073554;28;20388;-85
2023/04/07 06:22:57;;;;;;;4.00;3.10;;;8.00;1.00;;;;;;5072631;28;20384;-85
2023/04/07 06:25:23;;;;;;;3.20;2.90;;;8.10;1.00;;;;;;5073918;28;20403;-85
2023/04/07 06:27:49;;;;;;;3.80;3.50;;;8.30;1.00;;;;;;5072782;28;20407;-85
2023/04/07 06:30:15;;;;;;;3.15;2.85;;;8.20;1.00;;;;;;5072726;28;20388;-85
2023/04/07 06:32:40;;;;;;;3.57;3.27;;;8.30;1.00;;;;;;5072317;28;20387;-85
2023/04/07 06:35:06;;;;;;;3.67;3.13;;;8.20;1.00;;;;;;5072654;28;20380;-85
2023/04/07 06:37:32;;;;;;;4.70;3.20;;;8.30;1.00;;;;;;5082081;28;20393;-85
2023/04/07 06:39:57;;;;;;;3.10;2.80;;;8.50;1.00;;;;;;5087577;28;20404;-84
2023/04/07 06:42:23;;;;;;;3.27;2.97;;;8.60;99.90;;;;;;5073148;28;20742;-85
2023/04/07 06:44:48;;;;;;;3.90;3.23;;;8.80;99.90;;;;;;5071411;28;20416;-85
2023/04/07 06:47:14;;;;;;;4.45;3.20;;;8.80;99.90;;;;;;5071330;28;20877;-85
2023/04/07 06:49:40;;;;;;;3.42;3.13;;;8.90;96.50;;;;;;5077745;28;20494;-83
2023/04/07 06:52:05;;;;;;;3.10;2.90;;;9.10;95.20;;;;;;5086126;28;20461;-82
2023/04/07 06:54:31;;;;;;;3.50;3.20;;;9.10;96.80;;;;;;5085963;28;20744;-83
2023/04/07 06:56:57;;;;;;;3.75;3.35;;;9.30;91.20;;;;;;5091042;28;20413;-85
2023/04/07 06:59:22;;;;;;;4.05;3.40;;;9.30;90.70;;;;;;5092984;28;20378;-85
2023/04/07 07:01:48;;;;;;;3.53;3.23;;;9.40;89.50;;;;;;5081836;28;20894;-85
2023/04/07 07:04:14;;;;;;;3.67;3.27;;;9.30;85.80;;;;;;5077143;28;20469;-85
2023/04/07 07:06:39;;;;;;;3.40;3.10;;;9.40;85.60;;;;;;5080717;28;20395;-85
2023/04/07 07:09:05;;;;;;;3.90;3.40;;;9.40;83.70;;;;;;5075692;28;20383;-85
2023/04/07 07:11:30;;;;;;;3.60;3.30;;;9.30;86.80;;;;;;5072266;28;20463;-86
2023/04/07 07:13:56;;;;;;;3.70;3.40;;;9.30;90.20;;;;;;5066572;28;20399;-85
2023/04/07 07:16:24;;;;;;;5.10;3.50;;;9.30;90.80;;;;;;5071003;28;20399;-85
2023/04/07 07:18:50;;;;;;;3.30;3.00;;;9.40;89.00;;;;;;5069820;28;20427;-86
2023/04/07 07:21:17;;;;;;;3.60;3.30;;;9.60;85.80;;;;;;5082542;28;20381;-85
2023/04/07 07:23:43;;;;;;;3.90;3.50;;;9.60;86.40;;;;;;5089077;28;20400;-85
2023/04/07 07:26:09;;;;;;;3.63;3.33;;;9.50;90.40;;;;;;5098878;28;20469;-86
2023/04/07 07:28:34;;;;;;;3.50;3.20;;;9.50;94.70;;;;;;5098782;28;20399;-85
2023/04/07 07:31:00;;;;;;;3.70;3.40;;;9.70;89.00;;;;;;5087035;28;20926;-86
2023/04/07 07:33:25;;;;;;;3.37;3.07;;;9.90;85.20;;;;;;5087194;28;20400;-85
2023/04/07 07:35:51;;;;;;;3.27;2.97;;;9.80;83.90;;;;;;5085490;28;20469;-85
2023/04/07 07:38:16;;;;;;;3.85;3.08;;;9.90;86.80;;;;;;5071223;28;20897;-85
2023/04/07 07:40:42;;;;;;;3.50;3.20;;;9.80;88.50;;;;;;5076749;28;20399;-86
2023/04/07 07:43:07;;;;;;;3.80;3.50;;;9.80;88.90;;;;;;5071189;28;20380;-86
2023/04/07 07:45:33;;;;;;;3.40;3.03;;;9.90;89.40;;;;;;5071222;28;20400;-86
2023/04/07 07:47:59;;;;;;;3.43;3.13;;;9.90;86.70;;;;;;5073020;28;20379;-85
2023/04/07 07:50:25;;;;;;;3.58;3.28;;;9.70;91.50;;;;;;5072915;28;20384;-85
2023/04/07 07:52:50;;;;;;;5.50;3.60;;;9.70;95.80;;;;;;5072851;28;20390;-85
2023/04/07 07:55:16;;;;;;;4.47;3.53;;;9.80;93.60;;;;;;5073018;28;20852;-86
2023/04/07 07:57:41;;;;;;;3.93;3.63;;;9.80;94.70;;;;;;5075360;28;20430;-86
2023/04/07 08:00:07;;;;;;;4.10;3.70;;;9.80;96.10;;;;;;5072769;28;20383;-86
2023/04/07 08:02:35;;;;;;;3.90;3.60;;;9.80;96.40;;;;;;5071143;28;20460;-86
2023/04/07 08:05:00;;;;;;;4.60;4.20;;;9.70;99.90;;;;;;5072279;28;20399;-86
2023/04/07 08:07:26;;;;;;;4.40;3.80;;;9.80;99.90;;;;;;5071997;28;20395;-86
2023/04/07 08:09:52;;;;;;;4.55;3.78;;;9.70;99.90;;;;;;5072683;28;20919;-86
2023/04/07 08:12:17;;;;;;;5.18;3.88;;;9.80;99.90;;;;;;5071511;28;20380;-86
2023/04/07 08:14:43;;;;;;;4.22;3.83;;;9.80;99.90;;;;;;5098390;22;20803;-82
2023/04/07 08:17:09;;;;;;;4.50;4.10;;;9.50;99.90;;;;;;5094029;28;20385;-82
2023/04/07 08:19:34;;;;;;;4.30;3.90;;;9.60;99.90;;;;;;5095718;28;20386;-83
2023/04/07 08:22:00;;;;;;;4.70;3.70;;;9.50;99.90;;;;;;5094072;28;20381;-82
2023/04/07 08:24:25;;;;;;;4.30;3.90;;;9.60;99.90;;;;;;5094721;28;20875;-84
2023/04/07 08:26:51;;;;;;;4.15;3.75;;;9.50;99.90;;;;;;5075463;28;20386;-83
2023/04/07 08:29:16;;;;;;;4.88;4.30;;;9.30;99.90;;;;;;5093757;28;20370;-82
2023/04/07 08:31:41;;;;;;;4.00;3.60;;;9.20;99.90;;;;;;5076459;28;20753;-82
2023/04/07 08:34:07;;;;;;;4.20;3.70;;;9.30;99.90;;;;;;5084615;28;20386;-84
2023/04/07 08:36:32;;;;;;;4.07;3.67;;;9.20;99.90;;;;;;5102509;28;20397;-83
2023/04/07 08:39:10;;;;;;;4.93;4.43;;;9.10;99.90;;;;;;5084734;28;20386;-83
2023/04/07 08:41:41;;;;;;;4.43;4.03;;;9.00;99.90;;;;;;5094388;28;20473;-83
2023/04/07 08:44:08;;;;;;;5.20;4.07;;;9.10;99.90;;;;;;5076767;28;20477;-83
2023/04/07 08:46:37;;;;;;;5.00;4.50;;;8.90;99.90;;;;;;5076465;28;21017;-83
2023/04/07 08:49:12;;;;;;;5.17;4.67;;;9.00;99.90;;;;;;5097017;28;20786;-83
2023/04/07 08:51:46;;;;;;;4.80;4.30;;;8.90;99.90;;;;;;5082192;28;20389;-84
2023/04/07 08:54:14;;;;;;;5.50;4.80;;;8.80;99.90;;;;;;5100284;28;20868;-82
2023/04/07 08:56:41;;;;;;;4.50;4.10;;;8.90;99.90;;;;;;5100805;28;20411;-82
2023/04/07 08:59:09;;;;;;;5.00;4.50;;;8.70;99.90;;;;;;5104914;28;20393;-85
2023/04/07 09:01:35;;;;;;;5.00;4.60;;;8.70;99.90;;;;;;5088178;28;20417;-84
2023/04/07 09:04:08;;;;;;;5.30;4.80;;;8.50;99.90;;;;;;5087501;28;20405;-84
2023/04/07 09:06:34;;;;;;;5.60;5.10;;;8.60;99.90;;;;;;5088531;28;20451;-84
2023/04/07 09:09:05;;;;;;;5.70;5.10;;;8.50;99.90;;;;;;5100268;28;20935;-84
2023/04/07 09:11:35;;;;;;;5.30;4.80;;;8.30;99.90;;;;;;5082046;28;20392;-85
2023/04/07 09:14:00;;;;;;;4.90;4.40;;;8.20;99.90;;;;;;5100948;28;20396;-84
2023/04/07 09:16:28;;;;;;;5.30;4.90;;;8.10;99.90;;;;;;5083813;28;20390;-84
2023/04/07 09:18:54;;;;;;;6.28;5.68;;;8.10;99.90;;;;;;5085429;28;20385;-84
2023/04/07 09:21:19;;;;;;;5.00;4.40;;;8.20;99.90;;;;;;5081925;28;20386;-84
2023/04/07 09:23:46;;;;;;;5.27;4.50;;;8.20;99.90;;;;;;5100739;28;20404;-84
2023/04/07 09:26:24;;;;;;;5.30;4.80;;;8.30;99.90;;;;;;5082217;28;20381;-85
2023/04/07 09:28:57;;;;;;;4.95;4.30;;;8.10;99.90;;;;;;5100792;28;20378;-84
2023/04/07 09:31:41;;;;;;;5.22;4.55;;;8.10;99.90;;;;;;5100572;28;20431;-85
2023/04/07 09:34:26;;;;;;;4.78;4.30;;;7.90;99.90;;;;;;5100021;28;20401;-84
2023/04/07 09:36:52;;;;;;;4.65;4.35;;;8.00;99.90;;;;;;5082374;28;20386;-83
2023/04/07 09:39:18;;;;;;;4.05;3.60;;;8.10;99.90;;;;;;5088027;28;20373;-82
2023/04/07 09:41:44;;;;;;;3.70;3.40;;;8.20;99.90;;;;;;5123742;28;20393;-83
2023/04/07 09:44:09;;;;;;;4.00;3.60;;;8.10;99.90;;;;;;5122196;28;20398;-84
2023/04/07 09:46:35;;;;;;;3.70;3.40;;;8.10;99.90;;;;;;5091855;28;20480;-84
2023/04/07 09:49:06;;;;;;;4.10;3.70;;;8.10;99.90;;;;;;5081824;28;20386;-85
2023/04/07 09:51:32;;;;;;;4.10;3.70;;;8.10;99.90;;;;;;5080514;28;20392;-83
2023/04/07 09:53:58;;;;;;;4.03;3.63;;;7.90;99.90;;;;;;5081853;28;20405;-82
2023/04/07 09:56:25;;;;;;;3.77;3.47;;;7.90;99.90;;;;;;5099966;28;20382;-84
2023/04/07 09:58:52;;;;;;;3.80;3.50;;;7.80;99.90;;;;;;5081948;28;20481;-82
2023/04/07 10:01:18;;;;;;;2.90;2.70;;;7.80;99.90;;;;;;5078381;28;20390;-83
2023/04/07 10:03:45;;;;;;;3.08;2.78;;;7.70;99.90;;;;;;5078611;28;20421;-82
2023/04/07 10:06:11;;;;;;;2.53;2.33;;;7.60;99.90;;;;;;5096637;28;20386;-84
2023/04/07 10:08:39;;;;;;;3.20;2.90;;;7.50;99.90;;;;;;5076838;28;20760;-82
2023/04/07 10:11:05;;;;;;;2.90;2.70;;;7.50;99.90;;;;;;5094783;28;20575;-85
2023/04/07 10:13:34;;;;;;;2.40;2.20;;;7.40;99.90;;;;;;5096562;28;20381;-84
2023/04/07 10:16:05;;;;;;;3.10;2.80;;;7.50;99.90;;;;;;5078920;28;20397;-84
2023/04/07 10:18:33;;;;;;;3.30;2.95;;;7.40;99.90;;;;;;5078558;28;20394;-85
2023/04/07 10:21:01;;;;;;;3.20;2.90;;;7.40;99.90;;;;;;5095247;28;20906;-84
2023/04/07 10:23:44;;;;;;;3.42;3.13;;;7.40;99.90;;;;;;5100767;28;20378;-84
2023/04/07 10:26:11;;;;;;;2.80;2.60;;;7.60;99.90;;;;;;5101737;28;20516;-84
2023/04/07 10:28:40;;;;;;;2.43;2.23;;;7.60;99.90;;;;;;5079740;28;20383;-85
2023/04/07 10:31:06;;;;;;;2.22;2.10;;;7.60;99.90;;;;;;5079724;28;20386;-84
2023/04/07 10:33:45;;;;;;;2.47;2.28;;;7.70;99.90;;;;;;5098143;28;20378;-84
2023/04/07 10:36:11;;;;;;;2.88;2.35;;;7.60;99.90;;;;;;5078501;28;20382;-84
2023/04/07 10:38:36;;;;;;;2.60;2.40;;;7.50;99.90;;;;;;5077092;28;20370;-85
2023/04/07 10:41:35;;;;;;;2.28;2.08;;;7.60;99.90;;;;;;5108307;28;20416;-84
2023/04/07 10:44:04;;;;;;;2.60;2.40;;;7.70;99.90;;;;;;5100385;28;20423;-83
2023/04/07 10:46:55;;;;;;;2.42;2.22;;;7.60;99.90;;;;;;5113409;28;20434;-85
2023/04/07 10:49:21;;;;;;;2.47;2.28;;;7.70;99.90;;;;;;5108752;28;20459;-83
2023/04/07 10:52:12;;;;;;;3.77;2.60;;;8.00;99.90;;;;;;5109949;28;20378;-84
2023/04/07 10:54:38;;;;;;;3.20;2.40;;;7.90;99.90;;;;;;5108967;28;20389;-84
2023/04/07 10:57:09;;;;;;;1.77;1.67;;;8.10;99.90;;;;;;5091551;28;20452;-84
2023/04/07 10:59:37;;;;;;;2.30;2.20;;;8.10;99.90;;;;;;5106882;28;20378;-83
2023/04/07 11:02:11;;;;;;;2.20;1.98;;;8.00;99.90;;;;;;5080417;28;20394;-84
2023/04/07 11:04:45;;;;;;;2.35;1.67;;;8.10;99.90;;;;;;5098449;28;20426;-83
2023/04/07 11:07:15;;;;;;;1.90;1.80;;;8.10;99.90;;;;;;5097557;28;20440;-85
2023/04/07 11:09:41;;;;;;;2.75;1.80;;;8.00;99.90;;;;;;5079909;28;20393;-83
2023/04/07 11:12:07;;;;;;;1.60;1.50;;;8.00;99.90;;;;;;5078910;28;20895;-84
2023/04/07 11:14:36;;;;;;;2.00;1.80;;;8.10;99.90;;;;;;5079687;28;20432;-86
2023/04/07 11:17:02;;;;;;;1.73;1.60;;;8.30;99.90;;;;;;5079913;28;21145;-84
2023/04/07 11:19:28;;;;;;;1.35;1.25;;;8.10;99.90;;;;;;5078405;28;20422;-85
2023/04/07 11:22:15;;;;;;;1.92;1.50;;;7.90;99.90;;;;;;5078139;28;20394;-84
2023/04/07 11:24:42;;;;;;;1.77;1.67;;;8.20;99.90;;;;;;5096689;28;20390;-84
2023/04/07 11:27:14;;;;;;;1.80;1.50;;;8.00;99.90;;;;;;5077373;28;20387;-84
2023/04/07 11:29:40;;;;;;;1.60;1.50;;;8.10;99.90;;;;;;5078071;28;20420;-84
2023/04/07 11:32:06;;;;;;;1.70;1.60;;;8.30;99.90;;;;;;5079320;28;20382;-84
2023/04/07 11:34:33;;;;;;;2.20;2.00;;;8.20;99.90;;;;;;5077959;28;20401;-84
2023/04/07 11:37:26;;;;;;;1.70;1.60;;;8.50;99.90;;;;;;5095600;28;20462;-83
2023/04/07 11:39:56;;;;;;;2.70;1.38;;;8.50;99.90;;;;;;5079066;28;20480;-84
2023/04/07 11:42:35;;;;;;;1.58;1.40;;;8.50;99.90;;;;;;5096897;28;20726;-83
2023/04/07 11:45:01;;;;;;;1.70;1.60;;;8.40;99.90;;;;;;5104390;28;20408;-83
2023/04/07 11:47:37;;;;;;;2.00;1.83;;;8.40;99.90;;;;;;5089466;28;20413;-83
2023/04/07 11:50:03;;;;;;;1.70;1.60;;;8.20;99.90;;;;;;5087018;28;21162;-84
2023/04/07 11:52:39;;;;;;;2.15;1.77;;;8.20;99.90;;;;;;5077925;28;20378;-84
2023/04/07 11:55:05;;;;;;;1.70;1.60;;;8.20;99.90;;;;;;5076055;28;20386;-83
2023/04/07 11:57:31;;;;;;;1.60;1.50;;;8.50;99.90;;;;;;5094274;28;20772;-83
2023/04/07 12:00:10;;;;;;;2.17;1.70;;;8.50;99.90;;;;;;5094564;28;20386;-83
2023/04/07 12:02:36;;;;;;;1.80;1.70;;;8.60;99.90;;;;;;5093334;28;20389;-84
2023/04/07 12:05:03;;;;;;;2.40;1.80;;;8.80;99.90;;;;;;5076366;28;20772;-84
2023/04/07 12:07:28;;;;;;;1.90;1.80;;;8.90;99.90;;;;;;5096117;28;20842;-84
2023/04/07 12:09:54;;;;;;;1.90;1.80;;;8.50;99.90;;;;;;5094409;28;20428;-83
2023/04/07 12:12:27;;;;;;;1.77;1.67;;;8.80;99.90;;;;;;5076436;28;20382;-84
2023/04/07 12:14:54;;;;;;;2.20;2.00;;;8.70;99.90;;;;;;5094901;28;20394;-83
2023/04/07 12:17:24;;;;;;;2.80;2.30;;;8.90;99.90;;;;;;5094580;28;20387;-84
2023/04/07 12:19:49;;;;;;;1.90;1.80;;;9.20;99.90;;;;;;5093523;28;20396;-83
2023/04/07 12:22:15;;;;;;;1.95;1.85;;;9.40;99.90;;;;;;5092455;28;20381;-83
2023/04/07 12:24:41;;;;;;;2.10;1.90;;;9.00;99.90;;;;;;5092903;28;20891;-85
2023/04/07 12:27:07;;;;;;;1.77;1.67;;;8.80;99.90;;;;;;5075546;28;20429;-83
2023/04/07 12:29:33;;;;;;;2.00;1.90;;;9.10;99.90;;;;;;5075755;28;20378;-84
2023/04/07 12:31:58;;;;;;;1.93;1.83;;;8.70;99.90;;;;;;5077580;28;20485;-84
2023/04/07 12:34:24;;;;;;;2.70;2.30;;;8.60;99.90;;;;;;5078808;28;20390;-86
2023/04/07 12:37:05;;;;;;;2.10;2.00;;;8.60;99.90;;;;;;5075553;28;20391;-83
2023/04/07 12:39:30;;;;;;;2.80;2.40;;;8.60;99.90;;;;;;5097632;28;20384;-85
2023/04/07 12:41:57;;;;;;;2.30;2.10;;;8.70;99.90;;;;;;5083741;28;20383;-83
2023/04/07 12:44:22;;;;;;;2.30;2.10;;;8.50;99.90;;;;;;5097556;28;20394;-85
2023/04/07 12:46:48;;;;;;;2.50;2.30;;;8.70;99.90;;;;;;5101926;28;20884;-85
2023/04/07 12:49:13;;;;;;;2.50;2.30;;;8.50;99.90;;;;;;5087304;28;20374;-84
2023/04/07 12:51:39;;;;;;;2.40;2.20;;;8.30;99.90;;;;;;5097125;28;20378;-85
2023/04/07 12:54:04;;;;;;;2.40;2.20;;;8.30;99.90;;;;;;5094350;28;20382;-84
2023/04/07 12:56:30;;;;;;;2.80;2.50;;;8.40;99.90;;;;;;5075844;28;20572;-86
2023/04/07 12:58:55;;;;;;;2.83;2.63;;;8.50;99.90;;;;;;5076888;28;20747;-84
2023/04/07 13:01:21;;;;;;;2.80;2.60;;;8.60;99.90;;;;;;5079129;28;20401;-86